SondeTracker

Meteorological Radiosondes Database

Operations

Sounding was ended - last measurement: 2022-12-06 01:44:39z

MAP
About Radiosonde

Number: D22037178 (22037178)

Launch Site:

Type: DFM17

AUX: NO

Frequency: 403.410 MHz

Max Speed: 237 km/h at 12708 m

Average Speed: 124.17 km/h

Max Altitude: 32184 m

Average Ascent Speed: 5.53 m/s

Average Descent Speed: 9.28 m/s

Status: UNKNOWN

Status Changes
Launch Site Type AUX Frequency Status Finder Landing Point Description Changes made by
APRS Statistics

Received Frames: 298

First Frame [UTC]: 2022-12-05 23:51:15z

Last Frame [UTC]: 2022-12-06 01:44:39z

Receivers: KD9IXX, KD9PII

Flight Time: 01:53:24 h

Distance From First Measurement: 228.50 km

Nearest City: La Porte [IN] (US) [0.57 km]

Nearest Hunter: WU9D [71.22 km]

Ground Altitude: 245 m

Distance from QTH: 0.00 km

APRS Data
Receiver Number Date/Time [UTC] φ λ Course [°] Speed [km/h] Altitude [m] Description
KD9IXXD220371782022-12-06 01:44:3941.6057-86.7273572455Clb=-3.5m/s t=-2.0C h=-1.0% p=-1.0hPa 403.410 MHz Type=DFM17 ser=22037178 Radiosonde
KD9IXXD220371782022-12-06 01:43:3741.6025-86.731564672705Clb=-4.6m/s t=-0.9C h=-1.0% p=-1.0hPa 403.410 MHz Type=DFM17 ser=22037178 Radiosonde
KD9IXXD220371782022-12-06 01:43:0641.6019-86.733366632744Clb=-4.1m/s t=-0.2C h=-1.0% p=-1.0hPa 403.410 MHz Type=DFM17 ser=22037178 Radiosonde
KD9IXXD220371782022-12-06 01:42:3541.599-86.742769612944Clb=-4.2m/s t=-2.0C h=-1.0% p=-1.0hPa 403.410 MHz Type=DFM17 ser=22037178 Radiosonde
KD9IXXD220371782022-12-06 01:42:0341.5983-86.745270592998Clb=-3.9m/s t=-2.5C h=-1.0% p=-1.0hPa 403.410 MHz Type=DFM17 ser=22037178 Radiosonde
KD9IXXD220371782022-12-06 01:41:3241.5966-86.751167593126Clb=-4.1m/s t=-3.7C h=-1.0% p=-1.0hPa 403.410 MHz Type=DFM17 ser=22037178 Radiosonde
KD9IXXD220371782022-12-06 01:41:0141.5935-86.759761593322Clb=-4.1m/s t=-5.0C h=-1.0% p=-1.0hPa 403.410 MHz Type=DFM17 ser=22037178 Radiosonde
KD9IXXD220371782022-12-06 01:40:3041.5925-86.762465593384Clb=-4.1m/s t=-5.2C h=-1.0% p=-1.0hPa 403.410 MHz Type=DFM17 ser=22037178 Radiosonde
KD9IXXD220371782022-12-06 01:39:5941.5907-86.768173593518Clb=-4.2m/s t=-6.1C h=-1.0% p=-1.0hPa 403.410 MHz Type=DFM17 ser=22037178 Radiosonde
KD9IXXD220371782022-12-06 01:39:2841.5895-86.773974593652Clb=-4.2m/s t=-7.1C h=-1.0% p=-1.0hPa 403.410 MHz Type=DFM17 ser=22037178 Radiosonde
KD9IXXD220371782022-12-06 01:38:5741.5881-86.7872633789Clb=-4.2m/s t=-8.3C h=-1.0% p=-1.0hPa 403.410 MHz Type=DFM17 ser=22037178 Radiosonde
KD9IXXD220371782022-12-06 01:38:2641.5866-86.786674633929Clb=-4.1m/s t=-9.6C h=-1.0% p=-1.0hPa 403.410 MHz Type=DFM17 ser=22037178 Radiosonde
KD9IXXD220371782022-12-06 01:37:5541.5853-86.792975654062Clb=-4.3m/s t=-10.8C h=-1.0% p=-1.0hPa 403.410 MHz Type=DFM17 ser=22037178 Radiosonde
KD9IXXD220371782022-12-06 01:37:2441.5841-86.799377634199Clb=-4.5m/s t=-12.1C h=-1.0% p=-1.0hPa 403.410 MHz Type=DFM17 ser=22037178 Radiosonde
KD9IXXD220371782022-12-06 01:36:5341.5832-86.805781594337Clb=-4.6m/s t=-13.1C h=-1.0% p=-1.0hPa 403.410 MHz Type=DFM17 ser=22037178 Radiosonde
KD9IXXD220371782022-12-06 01:36:2241.5825-86.81281614477Clb=-4.8m/s t=-14.3C h=-1.0% p=-1.0hPa 403.410 MHz Type=DFM17 ser=22037178 Radiosonde
KD9IXXD220371782022-12-06 01:35:5141.5819-86.818584654624Clb=-4.7m/s t=-15.4C h=-1.0% p=-1.0hPa 403.410 MHz Type=DFM17 ser=22037178 Radiosonde
KD9IXXD220371782022-12-06 01:35:2041.5815-86.825688744760Clb=-4.6m/s t=-15.8C h=-1.0% p=-1.0hPa 403.410 MHz Type=DFM17 ser=22037178 Radiosonde
KD9IXXD220371782022-12-06 01:34:4941.5815-86.833791814904Clb=-4.7m/s t=-17.0C h=-1.0% p=-1.0hPa 403.410 MHz Type=DFM17 ser=22037178 Radiosonde
KD9IXXD220371782022-12-06 01:34:1841.5813-86.842584875051Clb=-4.5m/s t=-17.9C h=-1.0% p=-1.0hPa 403.410 MHz Type=DFM17 ser=22037178 Radiosonde
KD9IXXD220371782022-12-06 01:33:4741.5805-86.852282895197Clb=-4.0m/s t=-19.0C h=-1.0% p=-1.0hPa 403.410 MHz Type=DFM17 ser=22037178 Radiosonde
KD9IXXD220371782022-12-06 01:33:1541.5797-86.861585965330Clb=-4.6m/s t=-20.0C h=-1.0% p=-1.0hPa 403.410 MHz Type=DFM17 ser=22037178 Radiosonde
KD9IXXD220371782022-12-06 01:32:4541.5794-86.871788985465Clb=-4.3m/s t=-20.9C h=-1.0% p=-1.0hPa 403.410 MHz Type=DFM17 ser=22037178 Radiosonde
KD9IXXD220371782022-12-06 01:32:1341.5793-86.882881005609Clb=-4.6m/s t=-22.0C h=-1.0% p=-1.0hPa 403.410 MHz Type=DFM17 ser=22037178 Radiosonde
KD9IXXD220371782022-12-06 01:31:4241.5788-86.8929831095759Clb=-4.9m/s t=-22.3C h=-1.0% p=-1.0hPa 403.410 MHz Type=DFM17 ser=22037178 Radiosonde
KD9IXXD220371782022-12-06 01:31:1141.5777-86.9052841245913Clb=-4.8m/s t=-22.7C h=-1.0% p=-1.0hPa 403.410 MHz Type=DFM17 ser=22037178 Radiosonde
KD9IXXD220371782022-12-06 01:30:4041.5768-86.9182821336059Clb=-4.8m/s t=-23.0C h=-1.0% p=-1.0hPa 403.410 MHz Type=DFM17 ser=22037178 Radiosonde
KD9IXXD220371782022-12-06 01:30:1041.5756-86.9325851446210Clb=-4.8m/s t=-23.7C h=-1.0% p=-1.0hPa 403.410 MHz Type=DFM17 ser=22037178 Radiosonde
KD9IXXD220371782022-12-06 01:29:3841.5746-86.9477831486363Clb=-5.0m/s t=-24.2C h=-1.0% p=-1.0hPa 403.410 MHz Type=DFM17 ser=22037178 Radiosonde
KD9IXXD220371782022-12-06 01:29:0741.5731-86.9629821466518Clb=-5.0m/s t=-25.0C h=-1.0% p=-1.0hPa 403.410 MHz Type=DFM17 ser=22037178 Radiosonde
KD9IXXD220371782022-12-06 01:28:3641.5715-86.978801466675Clb=-5.0m/s t=-26.4C h=-1.0% p=-1.0hPa 403.410 MHz Type=DFM17 ser=22037178 Radiosonde
KD9IXXD220371782022-12-06 01:28:0541.5696-86.9928801466836Clb=-5.3m/s t=-27.5C h=-1.0% p=-1.0hPa 403.410 MHz Type=DFM17 ser=22037178 Radiosonde
KD9IXXD220371782022-12-06 01:27:3441.5677-87.0078801446998Clb=-5.2m/s t=-28.9C h=-1.0% p=-1.0hPa 403.410 MHz Type=DFM17 ser=22037178 Radiosonde
KD9IXXD220371782022-12-06 01:27:0341.566-87.0225811447160Clb=-5.4m/s t=-30.4C h=-1.0% p=-1.0hPa 403.410 MHz Type=DFM17 ser=22037178 Radiosonde
KD9IXXD220371782022-12-06 01:26:3241.5643-87.0373811447324Clb=-5.3m/s t=-31.7C h=-1.0% p=-1.0hPa 403.410 MHz Type=DFM17 ser=22037178 Radiosonde
KD9IXXD220371782022-12-06 01:26:0141.5627-87.0527831487495Clb=-5.3m/s t=-33.2C h=-1.0% p=-1.0hPa 403.410 MHz Type=DFM17 ser=22037178 Radiosonde
KD9IXXD220371782022-12-06 01:25:3041.5617-87.068851567656Clb=-5.3m/s t=-33.9C h=-1.0% p=-1.0hPa 403.410 MHz Type=DFM17 ser=22037178 Radiosonde
KD9PIID220371782022-12-06 01:25:2641.5611-87.0773841567752Clb=-5.2m/s t=-34.5C p=-1.0hPa h=-1.0% 403.410 MHz Type=DFM17 ser=22037178 Radiosonde
KD9IXXD220371782022-12-06 01:24:5941.5607-87.0847861617828Clb=-5.3m/s t=-34.8C h=-1.0% p=-1.0hPa 403.410 MHz Type=DFM17 ser=22037178 Radiosonde
KD9PIID220371782022-12-06 01:24:5641.5606-87.0874871637855Clb=-5.4m/s t=-35.0C p=-1.0hPa h=-1.0% 403.410 MHz Type=DFM17 ser=22037178 Radiosonde
KD9IXXD220371782022-12-06 01:24:2841.56-87.1015871617997Clb=-5.5m/s t=-36.3C h=-1.0% p=-1.0hPa 403.410 MHz Type=DFM17 ser=22037178 Radiosonde
KD9PIID220371782022-12-06 01:24:2441.5597-87.1117871618101Clb=-5.6m/s t=-37.2C p=-1.0hPa h=-1.0% 403.410 MHz Type=DFM17 ser=22037178 Radiosonde
KD9IXXD220371782022-12-06 01:23:5641.5595-87.1182871638167Clb=-5.4m/s t=-37.7C h=-1.0% p=-1.0hPa 403.410 MHz Type=DFM17 ser=22037178 Radiosonde
KD9PIID220371782022-12-06 01:23:5341.5594-87.1204871638189Clb=-5.5m/s t=-37.9C p=-1.0hPa h=-1.0% 403.410 MHz Type=DFM17 ser=22037178 Radiosonde
KD9IXXD220371782022-12-06 01:23:2541.5589-87.1352871678338Clb=-5.5m/s t=-39.0C h=-1.0% p=-1.0hPa 403.410 MHz Type=DFM17 ser=22037178 Radiosonde
KD9PIID220371782022-12-06 01:23:2241.5588-87.1369871698355Clb=-5.6m/s t=-39.1C p=-1.0hPa h=-1.0% 403.410 MHz Type=DFM17 ser=22037178 Radiosonde
KD9IXXD220371782022-12-06 01:22:5441.5583-87.1527871708511Clb=-5.6m/s t=-40.3C h=-1.0% p=-1.0hPa 403.410 MHz Type=DFM17 ser=22037178 Radiosonde
KD9PIID220371782022-12-06 01:22:5141.5583-87.1544871708528Clb=-5.5m/s t=-40.5C p=-1.0hPa h=-1.0% 403.410 MHz Type=DFM17 ser=22037178 Radiosonde
KD9IXXD220371782022-12-06 01:22:2341.5576-87.1714861808692Clb=-5.7m/s t=-41.6C h=-1.0% p=-1.0hPa 403.410 MHz Type=DFM17 ser=22037178 Radiosonde
KD9PIID220371782022-12-06 01:22:2041.5575-87.1739861808715Clb=-5.6m/s t=-41.8C p=-1.0hPa h=-1.0% 403.410 MHz Type=DFM17 ser=22037178 Radiosonde
KD9IXXD220371782022-12-06 01:21:5241.5568-87.1895851818864Clb=-5.9m/s t=-43.0C h=-1.0% p=-1.0hPa 403.410 MHz Type=DFM17 ser=22037178 Radiosonde
KD9PIID220371782022-12-06 01:21:4941.5567-87.1913861818882Clb=-5.7m/s t=-43.1C p=-1.0hPa h=-1.0% 403.410 MHz Type=DFM17 ser=22037178 Radiosonde
KD9IXXD220371782022-12-06 01:21:2141.5558-87.2085861859048Clb=-5.9m/s t=-44.5C h=-1.0% p=-1.0hPa 403.410 MHz Type=DFM17 ser=22037178 Radiosonde
KD9PIID220371782022-12-06 01:21:1841.5557-87.2103861859066Clb=-5.9m/s t=-44.7C p=-1.0hPa h=-1.0% 403.410 MHz Type=DFM17 ser=22037178 Radiosonde
KD9IXXD220371782022-12-06 01:20:5041.5549-87.2278861899233Clb=-6.0m/s t=-46.1C h=-1.0% p=-1.0hPa 403.410 MHz Type=DFM17 ser=22037178 Radiosonde
KD9PIID220371782022-12-06 01:20:4741.5548-87.2297861899252Clb=-5.9m/s t=-46.2C p=-1.0hPa h=-1.0% 403.410 MHz Type=DFM17 ser=22037178 Radiosonde
KD9IXXD220371782022-12-06 01:20:1941.5541-87.2476861949418Clb=-6.1m/s t=-47.7C h=-1.0% p=-1.0hPa 403.410 MHz Type=DFM17 ser=22037178 Radiosonde
KD9PIID220371782022-12-06 01:20:1641.554-87.2502861949442Clb=-6.2m/s t=-47.9C p=-1.0hPa h=-1.0% 403.410 MHz Type=DFM17 ser=22037178 Radiosonde
KD9IXXD220371782022-12-06 01:19:4841.5532-87.2682871949615Clb=-6.2m/s t=-49.3C h=-1.0% p=-1.0hPa 403.410 MHz Type=DFM17 ser=22037178 Radiosonde
KD9PIID220371782022-12-06 01:19:4541.5531-87.2695871949627Clb=-6.2m/s t=-49.5C p=-1.0hPa h=-1.0% 403.410 MHz Type=DFM17 ser=22037178 Radiosonde
KD9IXXD220371782022-12-06 01:19:1841.5525-87.2878871969799Clb=-6.0m/s t=-51.0C h=-1.0% p=-1.0hPa 403.410 MHz Type=DFM17 ser=22037178 Radiosonde
KD9PIID220371782022-12-06 01:19:1441.5524-87.2897871969817Clb=-6.1m/s t=-51.1C p=-1.0hPa h=-1.0% 403.410 MHz Type=DFM17 ser=22037178 Radiosonde
KD9IXXD220371782022-12-06 01:18:4641.5519-87.3082882069987Clb=-5.7m/s t=-52.3C h=-1.0% p=-1.0hPa 403.410 MHz Type=DFM17 ser=22037178 Radiosonde
KD9PIID220371782022-12-06 01:18:4341.5519-87.31028920210004Clb=-5.8m/s t=-52.4C p=-1.0hPa h=-1.0% 403.410 MHz Type=DFM17 ser=22037178 Radiosonde
KD9IXXD220371782022-12-06 01:18:1541.5518-87.32949020710176Clb=-6.3m/s t=-53.8C h=-1.0% p=-1.0hPa 403.410 MHz Type=DFM17 ser=22037178 Radiosonde
KD9PIID220371782022-12-06 01:18:1241.5519-87.33299120710208Clb=-6.3m/s t=-54.0C p=-1.0hPa h=-1.0% 403.410 MHz Type=DFM17 ser=22037178 Radiosonde
KD9IXXD220371782022-12-06 01:17:4641.5522-87.35119121110372Clb=-6.3m/s t=-55.2C h=-1.0% p=-1.0hPa 403.410 MHz Type=DFM17 ser=22037178 Radiosonde
KD9PIID220371782022-12-06 01:17:4341.5522-87.35399121110397Clb=-6.4m/s t=-55.3C p=-1.0hPa h=-1.0% 403.410 MHz Type=DFM17 ser=22037178 Radiosonde
KD9IXXD220371782022-12-06 01:17:1341.553-87.37389421510573Clb=-6.4m/s t=-56.4C h=-1.0% p=-1.0hPa 403.410 MHz Type=DFM17 ser=22037178 Radiosonde
KD9PIID220371782022-12-06 01:17:1041.5531-87.37529421510586Clb=-6.5m/s t=-56.5C p=-1.0hPa h=-1.0% 403.410 MHz Type=DFM17 ser=22037178 Radiosonde
KD9IXXD220371782022-12-06 01:16:4241.5544-87.3969521710776Clb=-6.3m/s t=-58.2C h=-1.0% p=-1.0hPa 403.410 MHz Type=DFM17 ser=22037178 Radiosonde
KD9PIID220371782022-12-06 01:16:3941.5546-87.39829621510795Clb=-6.5m/s t=-58.3C p=-1.0hPa h=-1.0% 403.410 MHz Type=DFM17 ser=22037178 Radiosonde
KD9IXXD220371782022-12-06 01:16:1141.556-87.41859422610979Clb=-6.5m/s t=-58.9C h=-1.0% p=-1.0hPa 403.410 MHz Type=DFM17 ser=22037178 Radiosonde
KD9PIID220371782022-12-06 01:16:0841.5561-87.429422610992Clb=-6.5m/s t=-58.9C p=-1.0hPa h=-1.0% 403.410 MHz Type=DFM17 ser=22037178 Radiosonde
KD9IXXD220371782022-12-06 01:15:4141.5577-87.44149521711185Clb=-6.7m/s t=-59.8C h=-1.0% p=-1.0hPa 403.410 MHz Type=DFM17 ser=22037178 Radiosonde
KD9PIID220371782022-12-06 01:15:3841.5579-87.44439722011212Clb=-6.6m/s t=-59.9C p=-1.0hPa h=-1.0% 403.410 MHz Type=DFM17 ser=22037178 Radiosonde
KD9IXXD220371782022-12-06 01:15:1241.5596-87.46499522811400Clb=-6.8m/s t=-60.7C h=-1.0% p=-1.0hPa 403.410 MHz Type=DFM17 ser=22037178 Radiosonde
KD9PIID220371782022-12-06 01:15:0941.5597-87.46649522611414Clb=-6.7m/s t=-60.7C p=-1.0hPa h=-1.0% 403.410 MHz Type=DFM17 ser=22037178 Radiosonde
KD9IXXD220371782022-12-06 01:14:4341.5615-87.4889623311608Clb=-6.8m/s t=-61.0C h=-1.0% p=-1.0hPa 403.410 MHz Type=DFM17 ser=22037178 Radiosonde
KD9PIID220371782022-12-06 01:14:4041.5617-87.49039623511628Clb=-6.8m/s t=-60.8C p=-1.0hPa h=-1.0% 403.410 MHz Type=DFM17 ser=22037178 Radiosonde
KD9IXXD220371782022-12-06 01:14:1241.5637-87.51219823511825Clb=-7.0m/s t=-60.9C h=-1.0% p=-1.0hPa 403.410 MHz Type=DFM17 ser=22037178 Radiosonde
KD9PIID220371782022-12-06 01:14:0941.564-87.51459723311846Clb=-7.1m/s t=-60.9C p=-1.0hPa h=-1.0% 403.410 MHz Type=DFM17 ser=22037178 Radiosonde
KD9IXXD220371782022-12-06 01:13:4141.5658-87.53549521912047Clb=-6.9m/s t=-61.2C h=-1.0% p=-1.0hPa 403.410 MHz Type=DFM17 ser=22037178 Radiosonde
KD9PIID220371782022-12-06 01:13:3841.5659-87.53769421512069Clb=-7.1m/s t=-61.2C p=-1.0hPa h=-1.0% 403.410 MHz Type=DFM17 ser=22037178 Radiosonde
KD9IXXD220371782022-12-06 01:13:1041.5669-87.55819322012273Clb=-7.3m/s t=-61.0C h=-1.0% p=-1.0hPa 403.410 MHz Type=DFM17 ser=22037178 Radiosonde
KD9PIID220371782022-12-06 01:13:0741.5671-87.56119422212303Clb=-7.5m/s t=-60.8C p=-1.0hPa h=-1.0% 403.410 MHz Type=DFM17 ser=22037178 Radiosonde
KD9IXXD220371782022-12-06 01:12:4041.5686-87.58219523212515Clb=-7.7m/s t=-59.9C h=-1.0% p=-1.0hPa 403.410 MHz Type=DFM17 ser=22037178 Radiosonde
KD9PIID220371782022-12-06 01:12:3641.5688-87.58379523012530Clb=-7.7m/s t=-59.9C p=-1.0hPa h=-1.0% 403.410 MHz Type=DFM17 ser=22037178 Radiosonde
KD9IXXD220371782022-12-06 01:12:0841.5705-87.60449722012748Clb=-7.9m/s t=-59.4C h=-1.0% p=-1.0hPa 403.410 MHz Type=DFM17 ser=22037178 Radiosonde
KD9PIID220371782022-12-06 01:12:0341.5708-87.60669822012772Clb=-7.9m/s t=-59.0C p=-1.0hPa h=-1.0% 403.410 MHz Type=DFM17 ser=22037178 Radiosonde
KD9IXXD220371782022-12-06 01:11:3641.5732-87.62649721312995Clb=-7.8m/s t=-58.4C h=-1.0% p=-1.0hPa 403.410 MHz Type=DFM17 ser=22037178 Radiosonde
KD9PIID220371782022-12-06 01:11:3241.5734-87.62859721513019Clb=-8.0m/s t=-58.4C p=-1.0hPa h=-1.0% 403.410 MHz Type=DFM17 ser=22037178 Radiosonde
KD9IXXD220371782022-12-06 01:11:0441.5755-87.64819920213242Clb=-8.0m/s t=-58.1C h=-1.0% p=-1.0hPa 403.410 MHz Type=DFM17 ser=22037178 Radiosonde
KD9PIID220371782022-12-06 01:11:0141.5757-87.65019920013266Clb=-8.1m/s t=-58.1C p=-1.0hPa h=-1.0% 403.410 MHz Type=DFM17 ser=22037178 Radiosonde
KD9IXXD220371782022-12-06 01:10:3341.5776-87.6689619313496Clb=-8.4m/s t=-59.5C h=-1.0% p=-1.0hPa 403.410 MHz Type=DFM17 ser=22037178 Radiosonde
KD9PIID220371782022-12-06 01:10:3041.5778-87.67059619313528Clb=-8.1m/s t=-59.6C p=-1.0hPa h=-1.0% 403.410 MHz Type=DFM17 ser=22037178 Radiosonde
KD9IXXD220371782022-12-06 01:10:0141.5793-87.68919319813760Clb=-8.3m/s t=-60.6C h=-1.0% p=-1.0hPa 403.410 MHz Type=DFM17 ser=22037178 Radiosonde
KD9PIID220371782022-12-06 01:09:5841.5793-87.69049419613777Clb=-8.2m/s t=-60.7C p=-1.0hPa h=-1.0% 403.410 MHz Type=DFM17 ser=22037178 Radiosonde
KD9IXXD220371782022-12-06 01:09:3141.5801-87.70819318914012Clb=-8.5m/s t=-61.7C h=-1.0% p=-1.0hPa 403.410 MHz Type=DFM17 ser=22037178 Radiosonde
KD9PIID220371782022-12-06 01:09:2941.5802-87.719318914038Clb=-8.7m/s t=-61.8C p=-1.0hPa h=-1.0% 403.410 MHz Type=DFM17 ser=22037178 Radiosonde
KD9IXXD220371782022-12-06 01:08:5941.5808-87.7289018914291Clb=-8.7m/s t=-60.8C h=-1.0% p=-1.0hPa 403.410 MHz Type=DFM17 ser=22037178 Radiosonde
KD9PIID220371782022-12-06 01:08:5741.5808-87.72929018914308Clb=-8.7m/s t=-60.9C p=-1.0hPa h=-1.0% 403.410 MHz Type=DFM17 ser=22037178 Radiosonde
KD9IXXD220371782022-12-06 01:08:2641.5816-87.7479718714557Clb=-9.0m/s t=-61.1C h=-1.0% p=-1.0hPa 403.410 MHz Type=DFM17 ser=22037178 Radiosonde
KD9PIID220371782022-12-06 01:08:2441.5817-87.74889818514583Clb=-8.7m/s t=-61.2C p=-1.0hPa h=-1.0% 403.410 MHz Type=DFM17 ser=22037178 Radiosonde
KD9IXXD220371782022-12-06 01:07:5441.5835-87.76539517014831Clb=-8.8m/s t=-62.2C h=-1.0% p=-1.0hPa 403.410 MHz Type=DFM17 ser=22037178 Radiosonde
KD9PIID220371782022-12-06 01:07:5141.5836-87.76769416914866Clb=-8.6m/s t=-62.5C p=-1.0hPa h=-1.0% 403.410 MHz Type=DFM17 ser=22037178 Radiosonde
KD9IXXD220371782022-12-06 01:07:2341.584-87.78268815215116Clb=-9.0m/s t=-61.8C h=-1.0% p=-1.0hPa 403.410 MHz Type=DFM17 ser=22037178 Radiosonde
KD9PIID220371782022-12-06 01:07:2041.5839-87.78418715415143Clb=-8.9m/s t=-61.9C p=-1.0hPa h=-1.0% 403.410 MHz Type=DFM17 ser=22037178 Radiosonde
KD9IXXD220371782022-12-06 01:06:5141.5832-87.79848915415396Clb=-9.0m/s t=-61.7C h=-1.0% p=-1.0hPa 403.410 MHz Type=DFM17 ser=22037178 Radiosonde
KD9PIID220371782022-12-06 01:06:4941.5832-87.89015615423Clb=-8.9m/s t=-61.7C p=-1.0hPa h=-1.0% 403.410 MHz Type=DFM17 ser=22037178 Radiosonde
KD9IXXD220371782022-12-06 01:06:4241.5834-87.81389014315681Clb=-8.6m/s t=-63.6C h=-1.0% p=-1.0hPa 403.410 MHz Type=DFM17 ser=22037178 Radiosonde
KD9IXXD220371782022-12-06 01:06:4141.5843-87.828310213515971Clb=-9.6m/s t=-65.3C h=-1.0% p=-1.0hPa 403.410 MHz Type=DFM17 ser=22037178 Radiosonde
KD9IXXD220371782022-12-06 01:06:3441.586-87.84149311516284Clb=-10.2m/s t=-65.9C h=-1.0% p=-1.0hPa 403.410 MHz Type=DFM17 ser=22037178 Radiosonde
KD9PIID220371782022-12-06 01:06:3241.586-87.84229211716305Clb=-10.1m/s t=-66.0C p=-1.0hPa h=-1.0% 403.410 MHz Type=DFM17 ser=22037178 Radiosonde
KD9IXXD220371782022-12-06 01:06:1241.5859-87.85318612016593Clb=-10.3m/s t=-67.3C h=-1.0% p=-1.0hPa 403.410 MHz Type=DFM17 ser=22037178 Radiosonde
KD9PIID220371782022-12-06 01:06:1041.5858-87.85438812416624Clb=-10.4m/s t=-67.5C p=-1.0hPa h=-1.0% 403.410 MHz Type=DFM17 ser=22037178 Radiosonde
KD9IXXD220371782022-12-06 01:05:5941.5861-87.86679512616922Clb=-10.6m/s t=-65.8C h=-1.0% p=-1.0hPa 403.410 MHz Type=DFM17 ser=22037178 Radiosonde
KD9PIID220371782022-12-06 01:05:5841.5862-87.8689513316955Clb=-10.8m/s t=-65.4C p=-1.0hPa h=-1.0% 403.410 MHz Type=DFM17 ser=22037178 Radiosonde
KD9IXXD220371782022-12-06 01:05:5341.5872-87.87969210717261Clb=-11.3m/s t=-62.5C h=-1.0% p=-1.0hPa 403.410 MHz Type=DFM17 ser=22037178 Radiosonde
KD9IXXD220371782022-12-06 01:05:4841.5871-87.89149312617614Clb=-11.3m/s t=-62.1C h=-1.0% p=-1.0hPa 403.410 MHz Type=DFM17 ser=22037178 Radiosonde
KD9PIID220371782022-12-06 01:05:4641.5872-87.89279613117648Clb=-11.3m/s t=-61.9C p=-1.0hPa h=-1.0% 403.410 MHz Type=DFM17 ser=22037178 Radiosonde
KD9IXXD220371782022-12-06 01:05:3741.5883-87.90459011717988Clb=-11.8m/s t=-61.7C h=-1.0% p=-1.0hPa 403.410 MHz Type=DFM17 ser=22037178 Radiosonde
KD9PIID220371782022-12-06 01:05:3541.5883-87.90529111518012Clb=-12.0m/s t=-61.8C p=-1.0hPa h=-1.0% 403.410 MHz Type=DFM17 ser=22037178 Radiosonde
KD9IXXD220371782022-12-06 01:05:0841.5886-87.91519410018356Clb=-12.2m/s t=-62.5C h=-1.0% p=-1.0hPa 403.410 MHz Type=DFM17 ser=22037178 Radiosonde
KD9PIID220371782022-12-06 01:05:0541.5887-87.91619610018393Clb=-12.3m/s t=-62.7C p=-1.0hPa h=-1.0% 403.410 MHz Type=DFM17 ser=22037178 Radiosonde
KD9IXXD220371782022-12-06 01:04:5941.59-87.925211010218747Clb=-12.9m/s t=-61.8C h=-1.0% p=-1.0hPa 403.410 MHz Type=DFM17 ser=22037178 Radiosonde
KD9IXXD220371782022-12-06 01:04:5641.591-87.9346978519153Clb=-13.4m/s t=-63.2C h=-1.0% p=-1.0hPa 403.410 MHz Type=DFM17 ser=22037178 Radiosonde
KD9PIID220371782022-12-06 01:04:5441.591-87.9355938019193Clb=-13.3m/s t=-63.4C p=-1.0hPa h=-1.0% 403.410 MHz Type=DFM17 ser=22037178 Radiosonde
KD9IXXD220371782022-12-06 01:04:2841.5915-87.9422916519569Clb=-13.4m/s t=-64.4C h=-1.0% p=-1.0hPa 403.410 MHz Type=DFM17 ser=22037178 Radiosonde
KD9PIID220371782022-12-06 01:04:2541.5915-87.9429906719610Clb=-13.6m/s t=-64.6C p=-1.0hPa h=-1.0% 403.410 MHz Type=DFM17 ser=22037178 Radiosonde
KD9IXXD220371782022-12-06 01:03:4841.591-87.9506788920004Clb=-13.6m/s t=-64.8C h=-1.0% p=-1.0hPa 403.410 MHz Type=DFM17 ser=22037178 Radiosonde
KD9PIID220371782022-12-06 01:03:4441.5908-87.9518799420059Clb=-13.9m/s t=-64.4C p=-1.0hPa h=-1.0% 403.410 MHz Type=DFM17 ser=22037178 Radiosonde
KD9IXXD220371782022-12-06 01:03:0441.5907-87.9601948520436Clb=-14.1m/s t=-63.7C h=-1.0% p=-1.0hPa 403.410 MHz Type=DFM17 ser=22037178 Radiosonde
KD9PIID220371782022-12-06 01:03:0141.5907-87.9607948320464Clb=-14.0m/s t=-63.8C p=-1.0hPa h=-1.0% 403.410 MHz Type=DFM17 ser=22037178 Radiosonde
KD9IXXD220371782022-12-06 01:02:2541.5909-87.9682767820882Clb=-14.9m/s t=-63.2C h=-1.0% p=-1.0hPa 403.410 MHz Type=DFM17 ser=22037178 Radiosonde
KD9PIID220371782022-12-06 01:02:2141.5907-87.969797220927Clb=-15.2m/s t=-63.0C p=-1.0hPa h=-1.0% 403.410 MHz Type=DFM17 ser=22037178 Radiosonde
KD9IXXD220371782022-12-06 01:01:4341.5903-87.9762847821356Clb=-15.5m/s t=-62.3C h=-1.0% p=-1.0hPa 403.410 MHz Type=DFM17 ser=22037178 Radiosonde
KD9PIID220371782022-12-06 01:01:3841.5903-87.9768888021388Clb=-15.6m/s t=-62.6C p=-1.0hPa h=-1.0% 403.410 MHz Type=DFM17 ser=22037178 Radiosonde
KD9IXXD220371782022-12-06 01:00:5641.5903-87.9837936121850Clb=-16.4m/s t=-62.9C h=-1.0% p=-1.0hPa 403.410 MHz Type=DFM17 ser=22037178 Radiosonde
KD9PIID220371782022-12-06 01:00:5341.5904-87.9841956521882Clb=-16.4m/s t=-62.7C p=-1.0hPa h=-1.0% 403.410 MHz Type=DFM17 ser=22037178 Radiosonde
KD9IXXD220371782022-12-06 01:00:1241.5911-87.9897935622366Clb=-17.3m/s t=-63.0C h=-1.0% p=-1.0hPa 403.410 MHz Type=DFM17 ser=22037178 Radiosonde
KD9PIID220371782022-12-06 01:00:0941.5911-87.99845622401Clb=-17.1m/s t=-63.1C p=-1.0hPa h=-1.0% 403.410 MHz Type=DFM17 ser=22037178 Radiosonde
KD9IXXD220371782022-12-06 00:59:3141.5897-87.9947775722900Clb=-16.6m/s t=-64.0C h=-1.0% p=-1.0hPa 403.410 MHz Type=DFM17 ser=22037178 Radiosonde
KD9PIID220371782022-12-06 00:59:2641.5896-87.9951817022933Clb=-16.8m/s t=-64.0C p=-1.0hPa h=-1.0% 403.410 MHz Type=DFM17 ser=22037178 Radiosonde
KD9IXXD220371782022-12-06 00:58:4741.5893-88.0019927823447Clb=-18.0m/s t=-60.6C h=-1.0% p=-1.0hPa 403.410 MHz Type=DFM17 ser=22037178 Radiosonde
KD9PIID220371782022-12-06 00:58:4341.5893-88.0027977823502Clb=-17.9m/s t=-60.6C p=-1.0hPa h=-1.0% 403.410 MHz Type=DFM17 ser=22037178 Radiosonde
KD9IXXD220371782022-12-06 00:58:0341.5906-88.00951027824023Clb=-19.2m/s t=-60.7C h=-1.0% p=-1.0hPa 403.410 MHz Type=DFM17 ser=22037178 Radiosonde
KD9PIID220371782022-12-06 00:58:0041.5907-88.011018024062Clb=-19.7m/s t=-60.7C p=-1.0hPa h=-1.0% 403.410 MHz Type=DFM17 ser=22037178 Radiosonde
KD9IXXD220371782022-12-06 00:57:1741.5917-88.0171966324633Clb=-19.7m/s t=-60.1C h=-1.0% p=-1.0hPa 403.410 MHz Type=DFM17 ser=22037178 Radiosonde
KD9PIID220371782022-12-06 00:57:1241.5918-88.01771026724693Clb=-20.5m/s t=-60.3C p=-1.0hPa h=-1.0% 403.410 MHz Type=DFM17 ser=22037178 Radiosonde
KD9IXXD220371782022-12-06 00:56:3141.5924-88.02361005425273Clb=-21.1m/s t=-58.0C h=-1.0% p=-1.0hPa 403.410 MHz Type=DFM17 ser=22037178 Radiosonde
KD9PIID220371782022-12-06 00:56:2741.5933-88.02691125425664Clb=-22.1m/s t=-57.8C p=-1.0hPa h=-1.0% 403.410 MHz Type=DFM17 ser=22037178 Radiosonde
KD9IXXD220371782022-12-06 00:55:4541.5937-88.02921106525960Clb=-22.6m/s t=-58.2C h=-1.0% p=-1.0hPa 403.410 MHz Type=DFM17 ser=22037178 Radiosonde
KD9PIID220371782022-12-06 00:55:4241.5939-88.03011016126052Clb=-23.1m/s t=-58.0C p=-1.0hPa h=-1.0% 403.410 MHz Type=DFM17 ser=22037178 Radiosonde
KD9IXXD220371782022-12-06 00:54:5941.5943-88.0349896326731Clb=-25.5m/s t=-57.5C h=-1.0% p=-1.0hPa 403.410 MHz Type=DFM17 ser=22037178 Radiosonde
KD9PIID220371782022-12-06 00:54:5641.5943-88.0353886326782Clb=-25.5m/s t=-57.6C p=-1.0hPa h=-1.0% 403.410 MHz Type=DFM17 ser=22037178 Radiosonde
KD9IXXD220371782022-12-06 00:54:1341.5939-88.0406755927526Clb=-26.9m/s t=-58.1C h=-1.0% p=-1.0hPa 403.410 MHz Type=DFM17 ser=22037178 Radiosonde
KD9PIID220371782022-12-06 00:54:0941.5933-88.0444766128004Clb=-28.2m/s t=-57.7C p=-1.0hPa h=-1.0% 403.410 MHz Type=DFM17 ser=22037178 Radiosonde
KD9IXXD220371782022-12-06 00:53:2441.5928-88.04827311328438Clb=-28.6m/s t=-58.0C h=-1.0% p=-1.0hPa 403.410 MHz Type=DFM17 ser=22037178 Radiosonde
KD9PIID220371782022-12-06 00:53:2141.5923-88.05068511128639Clb=-29.0m/s t=-58.2C p=-1.0hPa h=-1.0% 403.410 MHz Type=DFM17 ser=22037178 Radiosonde
KD9IXXD220371782022-12-06 00:52:3541.5917-88.05998811929348Clb=-33.5m/s t=-57.6C h=-1.0% p=-1.0hPa 403.410 MHz Type=DFM17 ser=22037178 Radiosonde
KD9PIID220371782022-12-06 00:52:3241.5916-88.0617899829515Clb=-33.6m/s t=-57.9C p=-1.0hPa h=-1.0% 403.410 MHz Type=DFM17 ser=22037178 Radiosonde
KD9IXXD220371782022-12-06 00:51:5041.5919-88.07289214430523Clb=-52.0m/s t=-54.8C h=-1.0% p=-1.0hPa 403.410 MHz Type=DFM17 ser=22037178 Radiosonde
KD9IXXD220371782022-12-06 00:51:1941.5923-88.08878516532128Clb=-34.8m/s t=-54.3C h=-1.0% p=-1.0hPa 403.410 MHz Type=DFM17 ser=22037178 Radiosonde
KD9PIID220371782022-12-06 00:51:1741.5922-88.08988415932184Clb=-21.3m/s t=-54.1C p=-1.0hPa h=-1.0% 403.410 MHz Type=DFM17 ser=22037178 Radiosonde
KD9IXXD220371782022-12-06 00:50:4841.5914-88.1058317432033Clb=8.8m/s t=-53.7C h=-1.0% p=-1.0hPa 403.410 MHz Type=DFM17 ser=22037178 Radiosonde
KD9PIID220371782022-12-06 00:50:4641.5913-88.10638520232018Clb=4.6m/s t=-53.6C p=-1.0hPa h=-1.0% 403.410 MHz Type=DFM17 ser=22037178 Radiosonde
KD9IXXD220371782022-12-06 00:50:1841.591-88.12168314831858Clb=3.8m/s t=-53.8C h=-1.0% p=-1.0hPa 403.410 MHz Type=DFM17 ser=22037178 Radiosonde
KD9PIID220371782022-12-06 00:50:1641.5911-88.12738916331804Clb=6.0m/s t=-53.7C p=-1.0hPa h=-1.0% 403.410 MHz Type=DFM17 ser=22037178 Radiosonde
KD9IXXD220371782022-12-06 00:49:4641.5915-88.13859516931714Clb=-1.1m/s t=-54.4C h=-1.0% p=-1.0hPa 403.410 MHz Type=DFM17 ser=22037178 Radiosonde
KD9PIID220371782022-12-06 00:49:4441.5916-88.13919715431710Clb=8.0m/s t=-54.4C p=-1.0hPa h=-1.0% 403.410 MHz Type=DFM17 ser=22037178 Radiosonde
KD9IXXD220371782022-12-06 00:49:3641.5946-88.2581729430119Clb=7.4m/s t=-56.7C h=-1.0% p=-1.0hPa 403.410 MHz Type=DFM17 ser=22037178 Radiosonde
KD9IXXD220371782022-12-06 00:49:3341.5942-88.26961067229949Clb=7.7m/s t=-58.0C h=-1.0% p=-1.0hPa 403.410 MHz Type=DFM17 ser=22037178 Radiosonde
KD9IXXD220371782022-12-06 00:49:3241.5944-88.28049911329808Clb=5.1m/s t=-57.6C h=-1.0% p=-1.0hPa 403.410 MHz Type=DFM17 ser=22037178 Radiosonde
KD9IXXD220371782022-12-06 00:49:3041.5941-88.29047811329646Clb=7.2m/s t=-57.9C h=-1.0% p=-1.0hPa 403.410 MHz Type=DFM17 ser=22037178 Radiosonde
KD9IXXD220371782022-12-06 00:49:2841.594-88.3003715929484Clb=7.4m/s t=-57.3C h=-1.0% p=-1.0hPa 403.410 MHz Type=DFM17 ser=22037178 Radiosonde
KD9IXXD220371782022-12-06 00:48:5741.5944-88.31151117429314Clb=3.1m/s t=-57.2C h=-1.0% p=-1.0hPa 403.410 MHz Type=DFM17 ser=22037178 Radiosonde
KD9PIID220371782022-12-06 00:48:5341.5946-88.312210413729307Clb=6.7m/s t=-273.0C p=-1.0hPa h=-1.0% 403.410 MHz Type=DFM17 ser=22037178 Radiosonde
KD9IXXD220371782022-12-06 00:48:0341.5943-88.323711310629122Clb=3.7m/s t=-56.7C h=-1.0% p=-1.0hPa 403.410 MHz Type=DFM17 ser=22037178 Radiosonde
KD9PIID220371782022-12-06 00:47:5841.5945-88.32459214429112Clb=8.3m/s t=-56.7C p=-1.0hPa h=-1.0% 403.410 MHz Type=DFM17 ser=22037178 Radiosonde
KD9IXXD220371782022-12-06 00:47:0641.5934-88.33526614628901Clb=8.7m/s t=-56.1C h=-1.0% p=-1.0hPa 403.410 MHz Type=DFM17 ser=22037178 Radiosonde
KD9PIID220371782022-12-06 00:47:0041.5931-88.3359638528890Clb=7.0m/s t=-56.1C p=-1.0hPa h=-1.0% 403.410 MHz Type=DFM17 ser=22037178 Radiosonde
KD9IXXD220371782022-12-06 00:46:0941.5919-88.3458714828681Clb=6.8m/s t=-56.2C h=-1.0% p=-1.0hPa 403.410 MHz Type=DFM17 ser=22037178 Radiosonde
KD9PIID220371782022-12-06 00:46:0541.5915-88.3462448928659Clb=7.8m/s t=-56.2C p=-1.0hPa h=-1.0% 403.410 MHz Type=DFM17 ser=22037178 Radiosonde
KD9IXXD220371782022-12-06 00:45:1441.5902-88.35585511928436Clb=9.6m/s t=-56.2C h=-1.0% p=-1.0hPa 403.410 MHz Type=DFM17 ser=22037178 Radiosonde
KD9PIID220371782022-12-06 00:45:0941.59-88.3562786928422Clb=6.5m/s t=-56.2C p=-1.0hPa h=-1.0% 403.410 MHz Type=DFM17 ser=22037178 Radiosonde
KD9IXXD220371782022-12-06 00:44:2241.5884-88.3651723328200Clb=-1.9m/s t=-56.1C h=-1.0% p=-1.0hPa 403.410 MHz Type=DFM17 ser=22037178 Radiosonde
KD9PIID220371782022-12-06 00:44:1741.5885-88.36588713028179Clb=11.0m/s t=-56.1C p=-1.0hPa h=-1.0% 403.410 MHz Type=DFM17 ser=22037178 Radiosonde
KD9IXXD220371782022-12-06 00:43:2541.5876-88.37231154627990Clb=8.6m/s t=-56.4C h=-1.0% p=-1.0hPa 403.410 MHz Type=DFM17 ser=22037178 Radiosonde
KD9PIID220371782022-12-06 00:43:2041.5878-88.37271179127973Clb=6.1m/s t=-56.6C p=-1.0hPa h=-1.0% 403.410 MHz Type=DFM17 ser=22037178 Radiosonde
KD9PIID220371782022-12-06 00:42:2041.5877-88.37991179427791Clb=4.7m/s t=-56.4C p=-1.0hPa h=-1.0% 403.410 MHz Type=DFM17 ser=22037178 Radiosonde
KD9IXXD220371782022-12-06 00:41:2741.5874-88.38651095927644Clb=7.3m/s t=-56.9C h=-1.0% p=-1.0hPa 403.410 MHz Type=DFM17 ser=22037178 Radiosonde
KD9PIID220371782022-12-06 00:41:2441.5875-88.38719911327632Clb=1.0m/s t=-57.4C p=-1.0hPa h=-1.0% 403.410 MHz Type=DFM17 ser=22037178 Radiosonde
KD9IXXD220371782022-12-06 00:40:2741.5865-88.39377810727488Clb=2.9m/s t=-58.7C h=-1.0% p=-1.0hPa 403.410 MHz Type=DFM17 ser=22037178 Radiosonde
KD9PIID220371782022-12-06 00:40:2441.5865-88.394689127486Clb=0.7m/s t=-58.7C p=-1.0hPa h=-1.0% 403.410 MHz Type=DFM17 ser=22037178 Radiosonde
KD9IXXD220371782022-12-06 00:39:3141.5861-88.40038310027345Clb=2.2m/s t=-59.6C h=-1.0% p=-1.0hPa 403.410 MHz Type=DFM17 ser=22037178 Radiosonde
KD9PIID220371782022-12-06 00:39:2841.5861-88.4006878027343Clb=1.7m/s t=-59.6C p=-1.0hPa h=-1.0% 403.410 MHz Type=DFM17 ser=22037178 Radiosonde
KD9IXXD220371782022-12-06 00:38:3641.5863-88.4059909127196Clb=4.5m/s t=-59.5C h=-1.0% p=-1.0hPa 403.410 MHz Type=DFM17 ser=22037178 Radiosonde
KD9PIID220371782022-12-06 00:38:3341.5863-88.4064975927187Clb=7.0m/s t=-59.5C p=-1.0hPa h=-1.0% 403.410 MHz Type=DFM17 ser=22037178 Radiosonde
KD9IXXD220371782022-12-06 00:37:3741.5862-88.41271245227017Clb=7.1m/s t=-59.5C h=-1.0% p=-1.0hPa 403.410 MHz Type=DFM17 ser=22037178 Radiosonde
KD9PIID220371782022-12-06 00:37:3341.5862-88.4128903027011Clb=4.6m/s t=-59.5C p=-1.0hPa h=-1.0% 403.410 MHz Type=DFM17 ser=22037178 Radiosonde
KD9IXXD220371782022-12-06 00:36:3341.5861-88.419564326808Clb=5.5m/s t=-60.0C h=-1.0% p=-1.0hPa 403.410 MHz Type=DFM17 ser=22037178 Radiosonde
KD9PIID220371782022-12-06 00:36:3041.5859-88.4194748926794Clb=7.1m/s t=-60.0C p=-1.0hPa h=-1.0% 403.410 MHz Type=DFM17 ser=22037178 Radiosonde
KD9IXXD220371782022-12-06 00:35:4741.5856-88.4247896326590Clb=8.9m/s t=-60.1C h=-1.0% p=-1.0hPa 403.410 MHz Type=DFM17 ser=22037178 Radiosonde
KD9PIID220371782022-12-06 00:35:4641.5856-88.4253954826569Clb=9.0m/s t=-60.2C p=-1.0hPa h=-1.0% 403.410 MHz Type=DFM17 ser=22037178 Radiosonde
KD9IXXD220371782022-12-06 00:35:1941.5865-88.4295895626371Clb=6.2m/s t=-59.8C h=-1.0% p=-1.0hPa 403.410 MHz Type=DFM17 ser=22037178 Radiosonde
KD9PIID220371782022-12-06 00:35:1741.5866-88.42971622026352Clb=8.0m/s t=-59.8C p=-1.0hPa h=-1.0% 403.410 MHz Type=DFM17 ser=22037178 Radiosonde
KD9IXXD220371782022-12-06 00:34:4541.5883-88.43481426526147Clb=6.4m/s t=-58.5C h=-1.0% p=-1.0hPa 403.410 MHz Type=DFM17 ser=22037178 Radiosonde
KD9PIID220371782022-12-06 00:34:4341.5886-88.4355938126127Clb=2.8m/s t=-58.4C p=-1.0hPa h=-1.0% 403.410 MHz Type=DFM17 ser=22037178 Radiosonde
KD9IXXD220371782022-12-06 00:34:1841.59-88.44061208025953Clb=9.6m/s t=-58.3C h=-1.0% p=-1.0hPa 403.410 MHz Type=DFM17 ser=22037178 Radiosonde
KD9PIID220371782022-12-06 00:34:1541.5902-88.4415997025934Clb=6.5m/s t=-58.3C p=-1.0hPa h=-1.0% 403.410 MHz Type=DFM17 ser=22037178 Radiosonde
KD9IXXD220371782022-12-06 00:33:4341.5914-88.44671017425762Clb=3.2m/s t=-58.1C h=-1.0% p=-1.0hPa 403.410 MHz Type=DFM17 ser=22037178 Radiosonde
KD9PIID220371782022-12-06 00:33:4141.5915-88.44711063725749Clb=7.6m/s t=-58.0C p=-1.0hPa h=-1.0% 403.410 MHz Type=DFM17 ser=22037178 Radiosonde
KD9IXXD220371782022-12-06 00:33:1341.5929-88.45261103725584Clb=7.2m/s t=-57.1C h=-1.0% p=-1.0hPa 403.410 MHz Type=DFM17 ser=22037178 Radiosonde
KD9PIID220371782022-12-06 00:33:1141.593-88.45371158125559Clb=2.0m/s t=-57.2C p=-1.0hPa h=-1.0% 403.410 MHz Type=DFM17 ser=22037178 Radiosonde
KD9IXXD220371782022-12-06 00:32:4841.6052-88.5716915222764Clb=6.5m/s t=-63.9C h=-1.0% p=-1.0hPa 403.410 MHz Type=DFM17 ser=22037178 Radiosonde
KD9PIID220371782022-12-06 00:32:4441.6052-88.5719743922755Clb=3.6m/s t=-64.0C p=-1.0hPa h=-1.0% 403.410 MHz Type=DFM17 ser=22037178 Radiosonde
KD9IXXD220371782022-12-06 00:31:4741.6048-88.577676122612Clb=2.5m/s t=-64.4C h=-1.0% p=-1.0hPa 403.410 MHz Type=DFM17 ser=22037178 Radiosonde
KD9PIID220371782022-12-06 00:31:4441.6048-88.57761106722594Clb=8.0m/s t=-64.3C p=-1.0hPa h=-1.0% 403.410 MHz Type=DFM17 ser=22037178 Radiosonde
KD9IXXD220371782022-12-06 00:30:4941.6052-88.5833837422438Clb=3.3m/s t=-64.1C h=-1.0% p=-1.0hPa 403.410 MHz Type=DFM17 ser=22037178 Radiosonde
KD9PIID220371782022-12-06 00:30:4641.6052-88.5836906722434Clb=4.8m/s t=-64.1C p=-1.0hPa h=-1.0% 403.410 MHz Type=DFM17 ser=22037178 Radiosonde
KD9IXXD220371782022-12-06 00:29:5141.606-88.5897876322271Clb=5.2m/s t=-63.7C h=-1.0% p=-1.0hPa 403.410 MHz Type=DFM17 ser=22037178 Radiosonde
KD9PIID220371782022-12-06 00:29:4841.606-88.59011014622262Clb=6.2m/s t=-63.6C p=-1.0hPa h=-1.0% 403.410 MHz Type=DFM17 ser=22037178 Radiosonde
KD9IXXD220371782022-12-06 00:28:5341.6072-88.59571205622113Clb=3.9m/s t=-63.0C h=-1.0% p=-1.0hPa 403.410 MHz Type=DFM17 ser=22037178 Radiosonde
KD9PIID220371782022-12-06 00:28:5041.6073-88.59611107822104Clb=6.6m/s t=-63.0C p=-1.0hPa h=-1.0% 403.410 MHz Type=DFM17 ser=22037178 Radiosonde
KD9IXXD220371782022-12-06 00:27:5641.6085-88.6029915721949Clb=7.1m/s t=-63.1C h=-1.0% p=-1.0hPa 403.410 MHz Type=DFM17 ser=22037178 Radiosonde
KD9PIID220371782022-12-06 00:27:5241.6085-88.60321055021939Clb=4.1m/s t=-63.1C p=-1.0hPa h=-1.0% 403.410 MHz Type=DFM17 ser=22037178 Radiosonde
KD9IXXD220371782022-12-06 00:26:5541.6088-88.6097998021779Clb=4.8m/s t=-63.3C h=-1.0% p=-1.0hPa 403.410 MHz Type=DFM17 ser=22037178 Radiosonde
KD9PIID220371782022-12-06 00:26:5241.6088-88.6102827021767Clb=5.1m/s t=-63.3C p=-1.0hPa h=-1.0% 403.410 MHz Type=DFM17 ser=22037178 Radiosonde
KD9IXXD220371782022-12-06 00:25:5641.6088-88.6171047221600Clb=5.1m/s t=-63.3C h=-1.0% p=-1.0hPa 403.410 MHz Type=DFM17 ser=22037178 Radiosonde
KD9PIID220371782022-12-06 00:25:5341.6088-88.6175877221589Clb=6.5m/s t=-63.3C p=-1.0hPa h=-1.0% 403.410 MHz Type=DFM17 ser=22037178 Radiosonde
KD9IXXD220371782022-12-06 00:24:5741.6087-88.6246817021423Clb=8.0m/s t=-62.2C h=-1.0% p=-1.0hPa 403.410 MHz Type=DFM17 ser=22037178 Radiosonde
KD9PIID220371782022-12-06 00:24:5341.6086-88.625766921412Clb=3.7m/s t=-62.2C p=-1.0hPa h=-1.0% 403.410 MHz Type=DFM17 ser=22037178 Radiosonde
KD9IXXD220371782022-12-06 00:23:5741.6082-88.6317906521250Clb=4.8m/s t=-61.9C h=-1.0% p=-1.0hPa 403.410 MHz Type=DFM17 ser=22037178 Radiosonde
KD9PIID220371782022-12-06 00:23:5441.6081-88.6322757821239Clb=4.4m/s t=-61.8C p=-1.0hPa h=-1.0% 403.410 MHz Type=DFM17 ser=22037178 Radiosonde
KD9IXXD220371782022-12-06 00:22:5841.6079-88.6395916921086Clb=7.6m/s t=-62.2C h=-1.0% p=-1.0hPa 403.410 MHz Type=DFM17 ser=22037178 Radiosonde
KD9PIID220371782022-12-06 00:22:5541.6079-88.6398817221080Clb=5.6m/s t=-62.2C p=-1.0hPa h=-1.0% 403.410 MHz Type=DFM17 ser=22037178 Radiosonde
KD9IXXD220371782022-12-06 00:21:5841.6069-88.6468857220927Clb=3.0m/s t=-62.7C h=-1.0% p=-1.0hPa 403.410 MHz Type=DFM17 ser=22037178 Radiosonde
KD9PIID220371782022-12-06 00:21:5641.6068-88.6472617420918Clb=6.4m/s t=-62.7C p=-1.0hPa h=-1.0% 403.410 MHz Type=DFM17 ser=22037178 Radiosonde
KD9IXXD220371782022-12-06 00:21:0341.6056-88.6542888520768Clb=4.5m/s t=-63.6C h=-1.0% p=-1.0hPa 403.410 MHz Type=DFM17 ser=22037178 Radiosonde
KD9PIID220371782022-12-06 00:21:0041.6056-88.6547856520761Clb=7.0m/s t=-63.6C p=-1.0hPa h=-1.0% 403.410 MHz Type=DFM17 ser=22037178 Radiosonde
KD9IXXD220371782022-12-06 00:20:0341.6058-88.66141048520622Clb=6.3m/s t=-64.0C h=-1.0% p=-1.0hPa 403.410 MHz Type=DFM17 ser=22037178 Radiosonde
KD9PIID220371782022-12-06 00:19:5841.6059-88.662988320614Clb=6.2m/s t=-64.0C p=-1.0hPa h=-1.0% 403.410 MHz Type=DFM17 ser=22037178 Radiosonde
KD9IXXD220371782022-12-06 00:19:0541.6061-88.6698907620474Clb=5.7m/s t=-63.7C h=-1.0% p=-1.0hPa 403.410 MHz Type=DFM17 ser=22037178 Radiosonde
KD9PIID220371782022-12-06 00:19:0241.6061-88.67011027220468Clb=5.9m/s t=-63.7C p=-1.0hPa h=-1.0% 403.410 MHz Type=DFM17 ser=22037178 Radiosonde
KD9IXXD220371782022-12-06 00:18:0941.6062-88.6789868120315Clb=6.3m/s t=-63.2C h=-1.0% p=-1.0hPa 403.410 MHz Type=DFM17 ser=22037178 Radiosonde
KD9PIID220371782022-12-06 00:18:0641.6061-88.68028310420297Clb=1.1m/s t=-63.2C p=-1.0hPa h=-1.0% 403.410 MHz Type=DFM17 ser=22037178 Radiosonde
KD9IXXD220371782022-12-06 00:17:0941.6055-88.688826720159Clb=5.3m/s t=-63.4C h=-1.0% p=-1.0hPa 403.410 MHz Type=DFM17 ser=22037178 Radiosonde
KD9PIID220371782022-12-06 00:17:0541.6054-88.6893899820137Clb=4.9m/s t=-63.8C p=-1.0hPa h=-1.0% 403.410 MHz Type=DFM17 ser=22037178 Radiosonde
KD9IXXD220371782022-12-06 00:16:1241.6045-88.697759119990Clb=5.8m/s t=-65.0C h=-1.0% p=-1.0hPa 403.410 MHz Type=DFM17 ser=22037178 Radiosonde
KD9PIID220371782022-12-06 00:16:0841.6043-88.6975669119980Clb=6.6m/s t=-64.9C p=-1.0hPa h=-1.0% 403.410 MHz Type=DFM17 ser=22037178 Radiosonde
KD9IXXD220371782022-12-06 00:15:3841.6034-88.7046888019827Clb=6.9m/s t=-64.6C h=-1.0% p=-1.0hPa 403.410 MHz Type=DFM17 ser=22037178 Radiosonde
KD9IXXD220371782022-12-06 00:15:0641.6028-88.7122867819655Clb=4.6m/s t=-63.9C h=-1.0% p=-1.0hPa 403.410 MHz Type=DFM17 ser=22037178 Radiosonde
KD9PIID220371782022-12-06 00:15:0541.6028-88.7128927219646Clb=5.9m/s t=-63.9C p=-1.0hPa h=-1.0% 403.410 MHz Type=DFM17 ser=22037178 Radiosonde
KD9IXXD220371782022-12-06 00:14:4341.6033-88.7188995719498Clb=5.8m/s t=-63.4C h=-1.0% p=-1.0hPa 403.410 MHz Type=DFM17 ser=22037178 Radiosonde
KD9PIID220371782022-12-06 00:14:2541.6048-88.72641088719317Clb=4.8m/s t=-63.1C p=-1.0hPa h=-1.0% 403.410 MHz Type=DFM17 ser=22037178 Radiosonde
KD9PIID220371782022-12-06 00:13:5941.6063-88.7339977019144Clb=4.9m/s t=-62.4C p=-1.0hPa h=-1.0% 403.410 MHz Type=DFM17 ser=22037178 Radiosonde
KD9PIID220371782022-12-06 00:13:5041.6076-88.7414977418989Clb=3.9m/s t=-61.3C p=-1.0hPa h=-1.0% 403.410 MHz Type=DFM17 ser=22037178 Radiosonde
KD9PIID220371782022-12-06 00:13:4341.6086-88.75059810218820Clb=6.4m/s t=-61.3C p=-1.0hPa h=-1.0% 403.410 MHz Type=DFM17 ser=22037178 Radiosonde
KD9PIID220371782022-12-06 00:13:3941.6103-88.76081139118660Clb=3.9m/s t=-60.2C p=-1.0hPa h=-1.0% 403.410 MHz Type=DFM17 ser=22037178 Radiosonde
KD9PIID220371782022-12-06 00:13:3641.6129-88.771811111318512Clb=5.0m/s t=-61.7C p=-1.0hPa h=-1.0% 403.410 MHz Type=DFM17 ser=22037178 Radiosonde
KD9PIID220371782022-12-06 00:13:1841.6145-88.78329810918380Clb=4.0m/s t=-61.8C p=-1.0hPa h=-1.0% 403.410 MHz Type=DFM17 ser=22037178 Radiosonde
KD9PIID220371782022-12-06 00:13:0041.6156-88.79468611118240Clb=3.8m/s t=-62.1C p=-1.0hPa h=-1.0% 403.410 MHz Type=DFM17 ser=22037178 Radiosonde
KD9PIID220371782022-12-06 00:12:5841.6162-88.806210012018101Clb=3.4m/s t=-61.9C p=-1.0hPa h=-1.0% 403.410 MHz Type=DFM17 ser=22037178 Radiosonde
KD9PIID220371782022-12-06 00:12:5641.6166-88.81969412417951Clb=4.0m/s t=-62.6C p=-1.0hPa h=-1.0% 403.410 MHz Type=DFM17 ser=22037178 Radiosonde
KD9PIID220371782022-12-06 00:12:4441.6175-88.83319815217788Clb=3.5m/s t=-62.9C p=-1.0hPa h=-1.0% 403.410 MHz Type=DFM17 ser=22037178 Radiosonde
KD9PIID220371782022-12-06 00:11:4841.6179-88.84729513117603Clb=5.2m/s t=-64.0C p=-1.0hPa h=-1.0% 403.410 MHz Type=DFM17 ser=22037178 Radiosonde
KD9PIID220371782022-12-06 00:10:5241.618-88.85859210717415Clb=4.9m/s t=-63.8C p=-1.0hPa h=-1.0% 403.410 MHz Type=DFM17 ser=22037178 Radiosonde
KD9PIID220371782022-12-06 00:09:5141.619-88.87079912217200Clb=10.3m/s t=-63.8C p=-1.0hPa h=-1.0% 403.410 MHz Type=DFM17 ser=22037178 Radiosonde
KD9PIID220371782022-12-06 00:08:5541.6202-88.88619515417004Clb=4.0m/s t=-65.5C p=-1.0hPa h=-1.0% 403.410 MHz Type=DFM17 ser=22037178 Radiosonde
KD9PIID220371782022-12-06 00:07:5741.6207-88.90078813916857Clb=5.8m/s t=-66.4C p=-1.0hPa h=-1.0% 403.410 MHz Type=DFM17 ser=22037178 Radiosonde
KD9PIID220371782022-12-06 00:07:0241.6201-88.91568114316716Clb=4.1m/s t=-66.3C p=-1.0hPa h=-1.0% 403.410 MHz Type=DFM17 ser=22037178 Radiosonde
KD9PIID220371782022-12-06 00:06:0941.6191-88.92918213316573Clb=5.9m/s t=-65.9C p=-1.0hPa h=-1.0% 403.410 MHz Type=DFM17 ser=22037178 Radiosonde
KD9PIID220371782022-12-06 00:05:1141.6181-88.94328511916416Clb=5.8m/s t=-65.4C p=-1.0hPa h=-1.0% 403.410 MHz Type=DFM17 ser=22037178 Radiosonde
KD9PIID220371782022-12-06 00:04:1641.6181-88.95519211516267Clb=6.2m/s t=-64.4C p=-1.0hPa h=-1.0% 403.410 MHz Type=DFM17 ser=22037178 Radiosonde
KD9PIID220371782022-12-06 00:03:4041.6189-88.96719511516107Clb=6.4m/s t=-64.0C p=-1.0hPa h=-1.0% 403.410 MHz Type=DFM17 ser=22037178 Radiosonde
KD9PIID220371782022-12-06 00:03:1241.6207-88.979710414115944Clb=3.4m/s t=-63.4C p=-1.0hPa h=-1.0% 403.410 MHz Type=DFM17 ser=22037178 Radiosonde
KD9PIID220371782022-12-06 00:02:3841.6229-88.99369814415767Clb=6.3m/s t=-63.8C p=-1.0hPa h=-1.0% 403.410 MHz Type=DFM17 ser=22037178 Radiosonde
KD9PIID220371782022-12-06 00:02:0941.6239-89.00938616915568Clb=2.7m/s t=-62.5C p=-1.0hPa h=-1.0% 403.410 MHz Type=DFM17 ser=22037178 Radiosonde
KD9PIID220371782022-12-06 00:01:3641.6238-89.02478515915400Clb=5.7m/s t=-61.4C p=-1.0hPa h=-1.0% 403.410 MHz Type=DFM17 ser=22037178 Radiosonde
KD9PIID220371782022-12-06 00:01:0641.6231-89.04129115715249Clb=6.0m/s t=-61.2C p=-1.0hPa h=-1.0% 403.410 MHz Type=DFM17 ser=22037178 Radiosonde
KD9PIID220371782022-12-06 00:00:5241.6244-89.07539716914962Clb=4.8m/s t=-63.3C p=-1.0hPa h=-1.0% 403.410 MHz Type=DFM17 ser=22037178 Radiosonde
KD9PIID220371782022-12-06 00:00:4541.6267-89.09419919114809Clb=5.3m/s t=-62.6C p=-1.0hPa h=-1.0% 403.410 MHz Type=DFM17 ser=22037178 Radiosonde
KD9PIID220371782022-12-06 00:00:3741.6292-89.11299320014661Clb=4.4m/s t=-62.0C p=-1.0hPa h=-1.0% 403.410 MHz Type=DFM17 ser=22037178 Radiosonde
KD9PIID220371782022-12-06 00:00:3241.6311-89.13559118914494Clb=5.5m/s t=-62.5C p=-1.0hPa h=-1.0% 403.410 MHz Type=DFM17 ser=22037178 Radiosonde
KD9PIID220371782022-12-06 00:00:2741.6328-89.16539418314264Clb=5.6m/s t=-61.9C p=-1.0hPa h=-1.0% 403.410 MHz Type=DFM17 ser=22037178 Radiosonde
KD9PIID220371782022-12-05 23:59:3741.6334-89.17479618514190Clb=6.2m/s t=-62.1C p=-1.0hPa h=-1.0% 403.410 MHz Type=DFM17 ser=22037178 Radiosonde
KD9PIID220371782022-12-05 23:58:4341.6345-89.19299621714046Clb=5.0m/s t=-61.6C p=-1.0hPa h=-1.0% 403.410 MHz Type=DFM17 ser=22037178 Radiosonde
KD9PIID220371782022-12-05 23:57:4941.6355-89.21479720213889Clb=5.2m/s t=-61.7C p=-1.0hPa h=-1.0% 403.410 MHz Type=DFM17 ser=22037178 Radiosonde
KD9PIID220371782022-12-05 23:56:5141.6358-89.23569518913722Clb=6.3m/s t=-60.4C p=-1.0hPa h=-1.0% 403.410 MHz Type=DFM17 ser=22037178 Radiosonde
KD9PIID220371782022-12-05 23:56:0241.6368-89.25529618313575Clb=3.1m/s t=-60.3C p=-1.0hPa h=-1.0% 403.410 MHz Type=DFM17 ser=22037178 Radiosonde
KD9PIID220371782022-12-05 23:56:0041.6386-89.27579521313429Clb=3.5m/s t=-59.3C p=-1.0hPa h=-1.0% 403.410 MHz Type=DFM17 ser=22037178 Radiosonde
KD9PIID220371782022-12-05 23:55:4941.6405-89.2979921113283Clb=4.8m/s t=-58.2C p=-1.0hPa h=-1.0% 403.410 MHz Type=DFM17 ser=22037178 Radiosonde
KD9PIID220371782022-12-05 23:54:1041.644-89.35139722212947Clb=4.1m/s t=-59.9C p=-1.0hPa h=-1.0% 403.410 MHz Type=DFM17 ser=22037178 Radiosonde
KD9PIID220371782022-12-05 23:53:2041.6446-89.36349523312873Clb=2.8m/s t=-60.3C p=-1.0hPa h=-1.0% 403.410 MHz Type=DFM17 ser=22037178 Radiosonde
KD9PIID220371782022-12-05 23:52:2941.6454-89.39159123712708Clb=3.7m/s t=-60.2C p=-1.0hPa h=-1.0% 403.410 MHz Type=DFM17 ser=22037178 Radiosonde
KD9PIID220371782022-12-05 23:51:4641.6458-89.41189023212589Clb=3.5m/s t=-60.0C p=-1.0hPa h=-1.0% 403.410 MHz Type=DFM17 ser=22037178 Radiosonde
KD9PIID220371782022-12-05 23:51:1541.647-89.46869123012268Clb=5.0m/s t=-273.0C p=-1.0hPa h=-1.0% 403.410 MHz Type=DFM17 ser=22037178 Radiosonde